createdAt,value
2023-04-28T00:00:51.867Z,6.83
2023-04-28T00:01:54.561Z,6.83
2023-04-28T00:02:57.529Z,6.93
2023-04-28T00:04:00.654Z,6.93
2023-04-28T00:05:03.442Z,6.98
2023-04-28T00:06:06.487Z,6.95
2023-04-28T00:07:09.197Z,7.00
2023-04-28T00:08:11.331Z,6.98
2023-04-28T00:09:14.072Z,6.96
2023-04-28T00:10:16.771Z,6.88
2023-04-28T00:11:19.169Z,6.87
2023-04-28T00:12:22.370Z,6.90
2023-04-28T00:13:24.732Z,6.86
2023-04-28T00:14:26.957Z,6.90
2023-04-28T00:15:30.068Z,6.87
2023-04-28T00:16:32.392Z,6.90
2023-04-28T00:17:34.932Z,6.87
2023-04-28T00:18:37.312Z,6.81
2023-04-28T00:19:39.600Z,6.79
2023-04-28T00:20:43.231Z,6.84
2023-04-28T00:21:45.603Z,6.86
2023-04-28T00:22:49.027Z,6.85
2023-04-28T00:23:51.439Z,6.80
2023-04-28T00:24:53.743Z,6.80
2023-04-28T00:25:56.943Z,6.79
2023-04-28T00:26:59.226Z,6.80
2023-04-28T00:28:02.288Z,6.86
2023-04-28T00:29:04.629Z,6.87
2023-04-28T00:30:08.771Z,6.80
2023-04-28T00:31:12.697Z,6.79
2023-04-28T00:32:15.813Z,6.80
2023-04-28T00:33:18.088Z,6.85
2023-04-28T00:34:20.897Z,6.85
2023-04-28T00:35:23.235Z,6.79
2023-04-28T00:36:26.146Z,6.81
2023-04-28T00:37:29.758Z,6.81
2023-04-28T00:38:31.978Z,6.73
2023-04-28T00:39:34.606Z,6.76
2023-04-28T00:40:38.950Z,6.74
2023-04-28T00:41:41.682Z,6.71
2023-04-28T00:42:44.368Z,6.73
2023-04-28T00:43:48.905Z,6.73
2023-04-28T00:44:52.328Z,6.73
2023-04-28T00:45:55.841Z,6.74
2023-04-28T00:46:59.248Z,6.75
2023-04-28T00:48:02.414Z,6.79
2023-04-28T00:49:05.451Z,6.83
2023-04-28T00:50:10.219Z,6.83
2023-04-28T00:51:13.054Z,6.85
2023-04-28T00:52:15.972Z,6.86
2023-04-28T00:53:18.556Z,6.73
2023-04-28T00:54:21.181Z,6.74
2023-04-28T00:55:26.022Z,6.79
2023-04-28T00:56:32.997Z,6.82
2023-04-28T00:57:36.685Z,6.79
2023-04-28T00:58:39.613Z,6.77
2023-04-28T00:59:42.028Z,6.74
2023-04-28T01:00:44.561Z,6.74
2023-04-28T01:01:46.869Z,6.78
2023-04-28T01:02:52.209Z,6.81
2023-04-28T01:03:55.549Z,6.80
2023-04-28T01:04:59.748Z,6.72
2023-04-28T01:06:02.805Z,6.72
2023-04-28T01:07:05.482Z,6.77
2023-04-28T01:08:07.916Z,6.77
2023-04-28T01:09:10.655Z,6.73
2023-04-28T01:10:16.114Z,6.66
2023-04-28T01:11:19.194Z,6.70
2023-04-28T01:12:41.592Z,6.72
2023-04-28T01:13:44.260Z,6.73
2023-04-28T01:14:47.865Z,6.66
2023-04-28T01:15:50.965Z,6.64
2023-04-28T01:16:54.166Z,6.70
2023-04-28T01:17:57.959Z,6.69
2023-04-28T01:19:01.097Z,6.69
2023-04-28T01:20:05.469Z,6.73
2023-04-28T01:21:07.839Z,6.69
2023-04-28T01:22:12.268Z,6.63
2023-04-28T01:23:15.913Z,6.64
2023-04-28T01:24:19.089Z,6.61
2023-04-28T01:25:21.716Z,6.64
2023-04-28T01:26:24.429Z,6.66
2023-04-28T01:27:26.530Z,6.62
2023-04-28T01:28:28.773Z,6.59
2023-04-28T01:29:31.107Z,6.61
2023-04-28T01:30:35.043Z,6.65
2023-04-28T01:31:37.635Z,6.72
2023-04-28T01:32:40.351Z,6.70
2023-04-28T01:33:42.754Z,6.60
2023-04-28T01:34:45.282Z,6.59
2023-04-28T01:35:48.002Z,6.63
2023-04-28T01:36:51.986Z,6.70
2023-04-28T01:37:54.386Z,6.71
2023-04-28T01:38:56.829Z,6.71
2023-04-28T01:39:59.156Z,6.82
2023-04-28T01:41:02.607Z,6.77
2023-04-28T01:42:05.509Z,6.64
2023-04-28T01:43:09.083Z,6.60
2023-04-28T01:44:12.631Z,6.56
2023-04-28T01:45:15.467Z,6.57
2023-04-28T01:46:18.809Z,6.61
2023-04-28T01:47:21.324Z,6.58
2023-04-28T01:48:23.939Z,6.53
2023-04-28T01:49:26.818Z,6.48
2023-04-28T01:50:29.360Z,6.48
2023-04-28T01:51:32.276Z,6.51
2023-04-28T01:52:35.786Z,6.55
2023-04-28T01:53:38.195Z,6.58
2023-04-28T01:54:41.015Z,6.58
2023-04-28T01:55:43.236Z,6.55
2023-04-28T01:56:46.210Z,6.54
2023-04-28T01:57:50.294Z,6.55
2023-04-28T01:58:53.077Z,6.56
2023-04-28T01:59:55.392Z,6.54
2023-04-28T02:00:58.925Z,6.55
2023-04-28T02:02:02.075Z,6.54
2023-04-28T02:03:05.159Z,6.57
2023-04-28T02:04:09.702Z,6.53
2023-04-28T02:05:12.656Z,6.52
2023-04-28T02:06:15.754Z,6.49
2023-04-28T02:07:18.849Z,6.47
2023-04-28T02:08:21.233Z,6.50
2023-04-28T02:09:23.454Z,6.50
2023-04-28T02:10:26.639Z,6.50
2023-04-28T02:11:29.989Z,6.53
2023-04-28T02:12:33.214Z,6.47
2023-04-28T02:13:36.195Z,6.50
2023-04-28T02:14:38.936Z,6.50
2023-04-28T02:15:42.678Z,6.50
2023-04-28T02:16:45.514Z,6.44
2023-04-28T02:17:48.649Z,6.44
2023-04-28T02:18:51.316Z,6.44
2023-04-28T02:19:58.051Z,6.52
2023-04-28T02:21:11.810Z,6.53
2023-04-28T02:22:16.760Z,6.50
2023-04-28T02:23:19.022Z,6.52
2023-04-28T02:24:21.601Z,6.49
2023-04-28T02:25:26.021Z,6.45
2023-04-28T02:26:28.732Z,6.39
2023-04-28T02:27:31.163Z,6.42
2023-04-28T02:28:34.054Z,6.36
2023-04-28T02:29:36.359Z,6.38
2023-04-28T02:30:39.148Z,6.44
2023-04-28T02:31:41.703Z,6.42
2023-04-28T02:32:44.166Z,6.44
2023-04-28T02:33:47.153Z,6.38
2023-04-28T02:34:54.851Z,6.38
2023-04-28T02:35:59.861Z,6.39
2023-04-28T02:37:02.592Z,6.42
2023-04-28T02:38:05.177Z,6.36
2023-04-28T02:39:07.463Z,6.37
2023-04-28T02:40:10.720Z,6.35
2023-04-28T02:41:15.050Z,6.33
2023-04-28T02:42:17.563Z,6.31
2023-04-28T02:43:20.083Z,6.37
2023-04-28T02:44:22.378Z,6.34
2023-04-28T02:45:25.022Z,6.37
2023-04-28T02:46:27.941Z,6.43
2023-04-28T02:47:30.540Z,6.38
2023-04-28T02:48:35.184Z,6.42
2023-04-28T02:49:37.591Z,6.44
2023-04-28T02:50:40.680Z,6.43
2023-04-28T02:51:43.088Z,6.48
2023-04-28T02:52:47.080Z,6.44
2023-04-28T02:53:50.156Z,6.42
2023-04-28T02:54:54.675Z,6.42
2023-04-28T02:55:56.967Z,6.43
2023-04-28T02:56:59.699Z,6.44
2023-04-28T02:58:02.560Z,6.51
2023-04-28T02:59:05.818Z,6.47
2023-04-28T03:00:09.871Z,6.39
2023-04-28T03:01:14.222Z,6.37
2023-04-28T03:02:16.747Z,6.42
2023-04-28T03:03:19.129Z,6.39
2023-04-28T03:04:22.642Z,6.42
2023-04-28T03:05:25.814Z,6.50
2023-04-28T03:06:29.600Z,6.47
2023-04-28T03:07:32.130Z,6.43
2023-04-28T03:08:35.558Z,6.39
2023-04-28T03:09:38.190Z,6.35
2023-04-28T03:10:41.664Z,6.38
2023-04-28T03:11:44.178Z,6.35
2023-04-28T03:12:46.743Z,6.40
2023-04-28T03:13:49.246Z,6.40
2023-04-28T03:14:51.633Z,6.29
2023-04-28T03:15:55.114Z,6.29
2023-04-28T03:16:59.158Z,6.34
2023-04-28T03:18:02.681Z,6.30
2023-04-28T03:19:07.520Z,6.31
2023-04-28T03:20:12.402Z,6.32
2023-04-28T03:21:14.974Z,6.38
2023-04-28T03:22:17.392Z,6.37
2023-04-28T03:23:19.613Z,6.37
2023-04-28T03:24:21.863Z,6.41
2023-04-28T03:25:26.117Z,6.45
2023-04-28T03:26:29.634Z,6.43
2023-04-28T03:27:34.019Z,6.38
2023-04-28T03:28:38.625Z,6.36
2023-04-28T03:29:41.182Z,6.30
2023-04-28T03:30:43.856Z,6.34
2023-04-28T03:31:46.540Z,6.35
2023-04-28T03:32:49.102Z,6.36
2023-04-28T03:33:51.703Z,6.33
2023-04-28T03:34:54.508Z,6.31
2023-04-28T03:35:56.918Z,6.41
2023-04-28T03:36:59.784Z,6.45
2023-04-28T03:38:04.434Z,6.43
2023-04-28T03:39:07.188Z,6.45
2023-04-28T03:40:11.302Z,6.39
2023-04-28T03:41:24.702Z,6.47
2023-04-28T03:42:31.467Z,6.47
2023-04-28T03:43:41.719Z,6.48
2023-04-28T03:44:49.472Z,6.45
2023-04-28T03:45:52.112Z,6.35
2023-04-28T03:46:54.926Z,6.33
2023-04-28T03:47:58.231Z,6.33
2023-04-28T03:49:03.313Z,6.31
2023-04-28T03:50:07.510Z,6.31
2023-04-28T03:51:11.224Z,6.33
2023-04-28T03:52:13.708Z,6.29
2023-04-28T03:53:16.797Z,6.25
2023-04-28T03:54:19.226Z,6.33
2023-04-28T03:55:21.754Z,6.34
2023-04-28T03:56:25.434Z,6.35
2023-04-28T03:57:28.161Z,6.35
2023-04-28T03:58:30.644Z,6.32
2023-04-28T03:59:32.890Z,6.31
2023-04-28T04:00:35.542Z,6.28
2023-04-28T04:01:39.486Z,6.29
2023-04-28T04:02:42.626Z,6.33
2023-04-28T04:03:46.157Z,6.30
2023-04-28T04:04:49.127Z,6.33
2023-04-28T04:05:53.050Z,6.28
2023-04-28T04:06:55.773Z,6.26
2023-04-28T04:07:59.911Z,6.25
2023-04-28T04:09:03.055Z,6.20
2023-04-28T04:10:06.854Z,6.11
2023-04-28T04:11:12.959Z,6.08
2023-04-28T04:12:15.456Z,6.13
2023-04-28T04:13:18.484Z,6.14
2023-04-28T04:14:20.963Z,6.11
2023-04-28T04:15:23.740Z,6.17
2023-04-28T04:16:26.773Z,6.18
2023-04-28T04:17:31.008Z,6.18
2023-04-28T04:18:33.634Z,6.19
2023-04-28T04:19:46.669Z,6.26
2023-04-28T04:20:49.883Z,6.30
2023-04-28T04:21:52.812Z,6.14
2023-04-28T04:22:55.420Z,6.11
2023-04-28T04:23:57.640Z,6.07
2023-04-28T04:24:59.855Z,6.07
2023-04-28T04:26:02.206Z,6.08
2023-04-28T04:27:04.845Z,6.10
2023-04-28T04:28:09.171Z,6.16
2023-04-28T04:29:11.298Z,6.07
2023-04-28T04:30:14.092Z,6.01
2023-04-28T04:31:18.416Z,5.96
2023-04-28T04:32:22.366Z,6.03
2023-04-28T04:33:25.240Z,6.09
2023-04-28T04:34:27.797Z,6.11
2023-04-28T04:35:31.840Z,6.15
2023-04-28T04:36:34.486Z,6.11
2023-04-28T04:37:37.792Z,6.07
2023-04-28T04:38:40.953Z,5.90
2023-04-28T04:39:52.841Z,5.91
2023-04-28T04:40:55.245Z,5.97
2023-04-28T04:41:58.071Z,5.96
2023-04-28T04:43:02.447Z,5.99
2023-04-28T04:44:06.722Z,6.03
2023-04-28T04:45:11.673Z,6.01
2023-04-28T04:46:14.351Z,5.92
2023-04-28T04:47:17.802Z,5.97
2023-04-28T04:48:22.363Z,6.07
2023-04-28T04:49:25.876Z,6.14
2023-04-28T04:50:29.086Z,6.05
2023-04-28T04:51:32.438Z,6.06
2023-04-28T04:52:35.391Z,6.01
2023-04-28T04:53:38.100Z,6.05
2023-04-28T04:54:41.788Z,6.10
2023-04-28T04:55:45.232Z,6.10
2023-04-28T04:56:47.825Z,6.13
2023-04-28T04:57:51.835Z,6.16
2023-04-28T04:59:13.144Z,6.19
2023-04-28T05:00:21.348Z,6.19
2023-04-28T05:01:24.017Z,6.15
2023-04-28T05:02:27.539Z,6.22
2023-04-28T05:03:30.826Z,6.33
2023-04-28T05:04:34.938Z,6.35
2023-04-28T05:05:38.378Z,6.36
2023-04-28T05:06:42.825Z,6.37
2023-04-28T05:07:46.445Z,6.42
2023-04-28T05:08:49.780Z,6.43
2023-04-28T05:09:53.774Z,6.42
2023-04-28T05:10:57.236Z,6.48
2023-04-28T05:12:00.950Z,6.61
2023-04-28T05:13:03.873Z,6.61
2023-04-28T05:14:06.359Z,6.66
2023-04-28T05:15:10.388Z,6.67
2023-04-28T05:16:14.795Z,6.69
2023-04-28T05:17:31.265Z,6.76
2023-04-28T05:18:33.988Z,6.77
2023-04-28T05:19:37.372Z,6.78
2023-04-28T05:20:40.199Z,6.84
2023-04-28T05:21:42.622Z,6.83
2023-04-28T05:22:45.673Z,6.78
2023-04-28T05:23:51.011Z,6.80
2023-04-28T05:24:53.870Z,6.81
2023-04-28T05:25:57.568Z,6.77
2023-04-28T05:27:01.250Z,6.76
2023-04-28T05:28:05.837Z,6.85
2023-04-28T05:29:08.213Z,6.92
2023-04-28T05:30:10.881Z,6.95
2023-04-28T05:31:13.812Z,6.94
2023-04-28T05:32:16.404Z,6.95
2023-04-28T05:33:19.364Z,6.98
2023-04-28T05:34:23.019Z,7.04
2023-04-28T05:35:26.494Z,7.16
2023-04-28T05:36:30.528Z,7.14
2023-04-28T05:37:33.548Z,7.15
2023-04-28T05:38:36.836Z,7.17
2023-04-28T05:39:39.409Z,7.18
2023-04-28T05:40:42.834Z,7.22
2023-04-28T05:41:47.637Z,7.30
2023-04-28T05:42:49.941Z,7.32
2023-04-28T05:43:52.369Z,7.35
2023-04-28T05:44:54.793Z,7.40
2023-04-28T05:45:58.679Z,7.47
2023-04-28T05:47:01.901Z,7.46
2023-04-28T05:48:04.860Z,7.54
2023-04-28T05:49:08.310Z,7.62
2023-04-28T05:50:13.252Z,7.57
2023-04-28T05:51:15.673Z,7.55
2023-04-28T05:52:17.996Z,7.34
2023-04-28T05:53:20.307Z,7.37
2023-04-28T05:54:22.832Z,7.37
2023-04-28T05:55:27.500Z,7.33
2023-04-28T05:56:30.456Z,7.42
2023-04-28T05:57:45.396Z,7.47
2023-04-28T05:58:39.224Z,7.51
2023-04-28T05:59:42.645Z,7.59
2023-04-28T06:00:45.719Z,7.64
2023-04-28T06:01:50.738Z,7.67
2023-04-28T06:02:54.189Z,7.73
2023-04-28T06:03:58.527Z,7.71
2023-04-28T06:05:01.241Z,7.71
2023-04-28T06:06:07.790Z,7.71
2023-04-28T06:07:09.223Z,7.71
2023-04-28T06:08:12.186Z,7.76
2023-04-28T06:09:14.801Z,7.81
2023-04-28T06:10:19.056Z,7.79
2023-04-28T06:11:22.715Z,7.73
2023-04-28T06:12:25.663Z,7.73
2023-04-28T06:13:28.465Z,7.74
2023-04-28T06:14:32.909Z,7.79
2023-04-28T06:15:35.541Z,7.83
2023-04-28T06:16:38.624Z,7.90
2023-04-28T06:17:41.873Z,7.85
2023-04-28T06:18:47.314Z,7.83
2023-04-28T06:19:52.028Z,7.78
2023-04-28T06:20:54.502Z,7.69
2023-04-28T06:21:56.900Z,7.73
2023-04-28T06:22:59.686Z,7.75
2023-04-28T06:24:02.205Z,7.76
2023-04-28T06:25:06.865Z,7.76
2023-04-28T06:26:13.406Z,7.79
2023-04-28T06:27:15.913Z,7.88
2023-04-28T06:28:18.222Z,7.86
2023-04-28T06:29:22.614Z,7.76
2023-04-28T06:30:25.104Z,7.80
2023-04-28T06:31:27.372Z,7.89
2023-04-28T06:32:29.947Z,7.97
2023-04-28T06:33:32.099Z,8.00
2023-04-28T06:34:36.900Z,8.00
2023-04-28T06:35:39.472Z,8.02
2023-04-28T06:36:42.379Z,7.99
2023-04-28T06:37:46.025Z,7.98
2023-04-28T06:38:49.359Z,8.04
2023-04-28T06:39:52.394Z,8.11
2023-04-28T06:40:55.373Z,8.17
2023-04-28T06:41:58.029Z,8.13
2023-04-28T06:43:03.211Z,8.17
2023-04-28T06:44:08.252Z,8.19
2023-04-28T06:45:11.569Z,8.27
2023-04-28T06:46:14.601Z,8.32
2023-04-28T06:47:18.549Z,8.30
2023-04-28T06:48:21.228Z,8.28
2023-04-28T06:49:23.904Z,8.38
2023-04-28T06:50:26.357Z,8.59
2023-04-28T06:51:28.351Z,8.59
2023-04-28T06:52:38.604Z,8.59
2023-04-28T06:53:36.049Z,8.59
2023-04-28T06:54:38.708Z,8.62
2023-04-28T06:55:43.613Z,8.66
2023-04-28T06:56:46.194Z,8.71
2023-04-28T06:57:48.522Z,8.71
2023-04-28T06:58:51.165Z,8.72
2023-04-28T06:59:53.281Z,8.79
2023-04-28T07:00:55.808Z,8.79
2023-04-28T07:01:58.061Z,8.88
2023-04-28T07:03:01.058Z,8.89
2023-04-28T07:04:03.799Z,8.97
2023-04-28T07:05:07.291Z,8.98
2023-04-28T07:06:10.858Z,9.04
2023-04-28T07:07:14.110Z,8.99
2023-04-28T07:08:17.057Z,9.02
2023-04-28T07:09:19.339Z,9.07
2023-04-28T07:10:21.459Z,9.07
2023-04-28T07:11:23.805Z,9.13
2023-04-28T07:12:27.038Z,9.06
2023-04-28T07:13:31.167Z,9.02
2023-04-28T07:14:33.532Z,8.99
2023-04-28T07:15:35.848Z,8.95
2023-04-28T07:16:38.632Z,8.98
2023-04-28T07:17:41.179Z,8.94
2023-04-28T07:18:43.441Z,8.91
2023-04-28T07:19:46.363Z,8.96
2023-04-28T07:20:48.872Z,9.05
2023-04-28T07:21:52.308Z,9.19
2023-04-28T07:22:55.055Z,9.31
2023-04-28T07:23:57.155Z,9.31
2023-04-28T07:24:59.590Z,9.39
2023-04-28T07:26:01.791Z,9.38
2023-04-28T07:27:04.540Z,9.38
2023-04-28T07:28:07.428Z,9.25
2023-04-28T07:29:11.799Z,9.18
2023-04-28T07:30:26.451Z,9.21
2023-04-28T07:31:18.860Z,9.23
2023-04-28T07:32:21.028Z,9.28
2023-04-28T07:33:23.706Z,9.31
2023-04-28T07:34:26.921Z,9.27
2023-04-28T07:35:29.164Z,9.36
2023-04-28T07:36:32.185Z,9.36
2023-04-28T07:37:34.466Z,9.27
2023-04-28T07:38:37.095Z,9.26
2023-04-28T07:39:40.029Z,9.29
2023-04-28T07:40:43.492Z,9.30
2023-04-28T07:41:46.154Z,9.32
2023-04-28T07:42:48.505Z,9.34
2023-04-28T07:43:50.826Z,9.34
2023-04-28T07:44:53.061Z,9.41
2023-04-28T07:45:55.587Z,9.42
2023-04-28T07:47:00.290Z,9.37
2023-04-28T07:48:03.104Z,9.31
2023-04-28T07:49:05.397Z,9.27
2023-04-28T07:50:09.794Z,9.31
2023-04-28T07:51:12.091Z,9.32
2023-04-28T07:52:14.944Z,9.43
2023-04-28T07:53:17.435Z,9.54
2023-04-28T07:54:19.890Z,9.58
2023-04-28T07:55:22.741Z,9.59
2023-04-28T07:56:25.718Z,9.66
2023-04-28T07:57:29.820Z,9.74
2023-04-28T07:58:33.204Z,9.79
2023-04-28T07:59:37.005Z,9.78
2023-04-28T08:00:41.016Z,9.70
2023-04-28T08:01:43.631Z,9.63
2023-04-28T08:02:45.915Z,9.64
2023-04-28T08:03:49.709Z,9.75
2023-04-28T08:04:56.842Z,9.81
2023-04-28T08:05:59.507Z,9.80
2023-04-28T08:07:05.351Z,9.73
2023-04-28T08:08:07.446Z,9.81
2023-04-28T08:09:09.815Z,9.78
2023-04-28T08:10:12.599Z,9.85
2023-04-28T08:11:14.805Z,9.89
2023-04-28T08:12:17.556Z,9.96
2023-04-28T08:13:19.855Z,10.02
2023-04-28T08:14:22.109Z,10.00
2023-04-28T08:15:25.406Z,10.02
2023-04-28T08:16:28.018Z,10.03
2023-04-28T08:17:30.996Z,10.07
2023-04-28T08:18:34.388Z,10.13
2023-04-28T08:19:37.836Z,10.10
2023-04-28T08:20:41.103Z,10.13
2023-04-28T08:21:43.360Z,10.17
2023-04-28T08:22:46.594Z,10.17
2023-04-28T08:23:49.280Z,10.09
2023-04-28T08:24:51.597Z,10.05
2023-04-28T08:25:54.219Z,10.09
2023-04-28T08:26:56.684Z,10.07
2023-04-28T08:27:58.901Z,10.13
2023-04-28T08:29:01.491Z,10.18
2023-04-28T08:30:05.315Z,10.21
2023-04-28T08:31:08.086Z,10.24
2023-04-28T08:32:10.978Z,10.24
2023-04-28T08:33:13.266Z,10.28
2023-04-28T08:34:16.844Z,10.30
2023-04-28T08:35:20.212Z,10.28
2023-04-28T08:36:25.069Z,10.26
2023-04-28T08:37:27.946Z,10.23
2023-04-28T08:38:30.667Z,10.23
2023-04-28T08:39:35.199Z,10.27
2023-04-28T08:40:37.916Z,10.38
2023-04-28T08:41:41.001Z,10.35
2023-04-28T08:42:45.986Z,10.42
2023-04-28T08:43:49.796Z,10.44
2023-04-28T08:44:57.312Z,10.29
2023-04-28T08:46:02.388Z,10.30
2023-04-28T08:47:14.203Z,10.33
2023-04-28T08:48:22.424Z,10.42
2023-04-28T08:49:28.832Z,10.46
2023-04-28T08:50:33.642Z,10.29
2023-04-28T08:51:42.059Z,10.24
2023-04-28T08:52:45.411Z,10.25
2023-04-28T08:55:02.609Z,10.12
2023-04-28T08:56:07.873Z,9.99
2023-04-28T08:57:10.793Z,10.02
2023-04-28T08:58:13.709Z,10.14
2023-04-28T08:59:17.669Z,10.37
2023-04-28T09:00:21.446Z,10.41
2023-04-28T09:01:25.667Z,10.39
2023-04-28T09:02:29.096Z,10.50
2023-04-28T09:03:33.615Z,10.72
2023-04-28T09:04:37.495Z,10.58
2023-04-28T09:05:40.496Z,10.66
2023-04-28T09:06:42.909Z,10.62
2023-04-28T09:07:49.937Z,10.69
2023-04-28T09:08:57.160Z,10.56
2023-04-28T09:10:21.682Z,10.78
2023-04-28T09:11:25.009Z,10.79
2023-04-28T09:13:52.611Z,10.89
2023-04-28T09:14:58.326Z,10.87
2023-04-28T09:16:02.402Z,10.92
2023-04-28T09:17:12.978Z,10.99
2023-04-28T09:18:15.897Z,10.92
2023-04-28T09:19:18.516Z,11.07
2023-04-28T09:20:22.382Z,11.07
2023-04-28T09:21:27.815Z,11.05
2023-04-28T09:22:33.214Z,11.04
2023-04-28T09:23:46.173Z,10.82
2023-04-28T09:24:48.534Z,10.82
2023-04-28T09:26:05.118Z,10.94
2023-04-28T09:27:10.909Z,11.11
2023-04-28T09:28:22.831Z,11.22
2023-04-28T09:29:25.774Z,11.32
2023-04-28T09:30:40.915Z,11.19
2023-04-28T09:31:43.634Z,11.22
2023-04-28T09:32:46.797Z,11.02
2023-04-28T09:33:59.996Z,11.16
2023-04-28T09:35:04.352Z,11.21
2023-04-28T09:36:07.402Z,11.34
2023-04-28T09:37:24.310Z,11.53
2023-04-28T09:38:27.163Z,11.51
2023-04-28T09:39:32.772Z,11.61
2023-04-28T09:40:58.947Z,11.65
2023-04-28T09:42:03.373Z,11.66
2023-04-28T09:43:18.979Z,11.89
2023-04-28T09:44:20.952Z,11.89
2023-04-28T09:45:24.800Z,12.00
2023-04-28T09:46:30.759Z,11.89
2023-04-28T09:47:37.890Z,11.92
2023-04-28T09:48:40.512Z,12.05
2023-04-28T09:49:56.553Z,12.01
2023-04-28T09:51:01.748Z,12.03
2023-04-28T09:52:13.107Z,12.01
2023-04-28T09:53:18.161Z,11.76
2023-04-28T09:54:23.014Z,11.95
2023-04-28T09:55:28.244Z,11.99
2023-04-28T09:56:32.614Z,11.96
2023-04-28T09:57:38.162Z,11.83
2023-04-28T09:58:42.479Z,11.70
2023-04-28T09:59:49.463Z,11.40
2023-04-28T10:00:59.866Z,11.51
2023-04-28T10:02:17.379Z,11.72
2023-04-28T10:03:11.179Z,11.80
2023-04-28T10:04:14.795Z,11.76
2023-04-28T10:05:17.827Z,11.65
2023-04-28T10:06:20.508Z,11.69
2023-04-28T10:07:22.844Z,11.69
2023-04-28T10:08:27.680Z,11.55
2023-04-28T10:09:32.077Z,11.74
2023-04-28T10:10:34.745Z,12.10
2023-04-28T10:11:38.742Z,12.10
2023-04-28T10:12:43.990Z,12.07
2023-04-28T10:13:47.204Z,12.05
2023-04-28T10:14:57.726Z,11.89
2023-04-28T10:16:05.527Z,11.77
2023-04-28T10:17:08.161Z,11.77
2023-04-28T10:19:33.785Z,12.13
2023-04-28T10:20:37.199Z,12.29
2023-04-28T10:21:49.303Z,12.45
2023-04-28T10:23:18.371Z,12.57
2023-04-28T10:24:25.357Z,12.75
2023-04-28T10:25:31.494Z,12.38
2023-04-28T10:26:56.900Z,12.45
2023-04-28T10:28:01.107Z,12.65
2023-04-28T10:29:03.405Z,12.70
2023-04-28T10:30:27.489Z,12.73
2023-04-28T10:31:23.622Z,12.68
2023-04-28T10:32:30.863Z,12.69
2023-04-28T10:33:33.797Z,12.30
2023-04-28T10:34:35.908Z,12.66
2023-04-28T10:35:46.001Z,12.76
2023-04-28T10:36:54.868Z,12.87
2023-04-28T10:38:13.752Z,12.76
2023-04-28T10:39:17.191Z,12.76
2023-04-28T10:40:38.322Z,13.04
2023-04-28T10:41:41.236Z,13.01
2023-04-28T10:42:56.388Z,12.77
2023-04-28T10:43:59.131Z,12.74
2023-04-28T10:45:02.499Z,12.90
2023-04-28T10:46:08.164Z,12.79
2023-04-28T10:47:11.234Z,12.79
2023-04-28T10:48:13.934Z,12.88
2023-04-28T10:49:18.581Z,12.96
2023-04-28T10:50:36.148Z,13.05
2023-04-28T10:51:28.898Z,13.09
2023-04-28T10:52:42.123Z,13.15
2023-04-28T10:53:51.888Z,12.73
2023-04-28T10:55:33.379Z,13.04
2023-04-28T10:56:35.748Z,13.06
2023-04-28T10:57:39.037Z,13.11
2023-04-28T10:58:43.240Z,13.15
2023-04-28T10:59:45.509Z,13.19
2023-04-28T11:00:49.077Z,13.13
2023-04-28T11:01:52.113Z,12.73
2023-04-28T11:02:55.631Z,12.66
2023-04-28T11:04:02.356Z,12.68
2023-04-28T11:05:12.064Z,12.63
2023-04-28T11:06:32.833Z,12.72
2023-04-28T11:07:35.609Z,12.75
2023-04-28T11:08:37.889Z,12.80
2023-04-28T11:09:44.064Z,12.74
2023-04-28T11:11:13.621Z,12.82
2023-04-28T11:12:16.130Z,12.71
2023-04-28T11:13:31.129Z,12.89
2023-04-28T11:14:35.896Z,12.94
2023-04-28T11:15:39.641Z,12.65
2023-04-28T11:16:56.224Z,12.61
2023-04-28T11:18:01.963Z,12.51
2023-04-28T11:19:05.504Z,12.37
2023-04-28T11:20:12.205Z,12.55
2023-04-28T11:21:15.104Z,12.46
2023-04-28T11:22:19.972Z,12.41
2023-04-28T11:23:23.826Z,12.62
2023-04-28T11:25:55.746Z,12.59
2023-04-28T11:26:59.798Z,12.53
2023-04-28T11:28:06.982Z,12.45
2023-04-28T11:29:10.704Z,12.52
2023-04-28T11:30:22.117Z,12.70
2023-04-28T11:31:26.894Z,12.69
2023-04-28T11:32:31.709Z,12.75
2023-04-28T11:33:37.905Z,12.78
2023-04-28T11:34:40.495Z,13.02
2023-04-28T11:35:43.326Z,12.74
2023-04-28T11:36:46.021Z,12.86
2023-04-28T11:37:52.487Z,12.96
2023-04-28T11:38:58.849Z,13.03
2023-04-28T11:40:12.589Z,13.14
2023-04-28T11:41:15.165Z,12.89
2023-04-28T11:42:17.827Z,13.11
2023-04-28T11:44:33.980Z,13.40
2023-04-28T11:45:36.554Z,13.23
2023-04-28T11:46:55.923Z,13.16
2023-04-28T11:48:00.075Z,13.33
2023-04-28T11:49:06.012Z,13.21
2023-04-28T11:50:08.792Z,13.01
2023-04-28T11:51:33.173Z,13.14
2023-04-28T11:52:36.589Z,13.38
2023-04-28T11:53:45.395Z,13.16
2023-04-28T11:55:01.565Z,13.35
2023-04-28T11:56:08.947Z,13.60
2023-04-28T11:57:20.878Z,13.81
2023-04-28T11:58:24.335Z,13.89
2023-04-28T11:59:34.191Z,14.14
2023-04-28T12:00:37.655Z,14.09
2023-04-28T12:01:55.327Z,14.02
2023-04-28T12:02:58.097Z,14.06
2023-04-28T12:04:01.842Z,13.78
2023-04-28T12:05:08.380Z,13.82
2023-04-28T12:06:10.954Z,13.85
2023-04-28T12:07:16.152Z,13.99
2023-04-28T12:08:29.392Z,13.67
2023-04-28T12:09:36.204Z,13.71
2023-04-28T12:10:38.577Z,13.74
2023-04-28T12:11:52.313Z,13.99
2023-04-28T12:12:54.980Z,13.75
2023-04-28T12:14:06.495Z,13.39
2023-04-28T12:15:09.913Z,13.64
2023-04-28T12:16:12.701Z,13.93
2023-04-28T12:17:26.790Z,14.11
2023-04-28T12:18:29.322Z,14.24
2023-04-28T12:19:35.109Z,13.97
2023-04-28T12:20:39.113Z,13.82
2023-04-28T12:21:42.160Z,13.69
2023-04-28T12:22:50.137Z,13.50
2023-04-28T12:23:53.074Z,13.34
2023-04-28T12:25:10.986Z,13.29
2023-04-28T12:26:13.983Z,13.38
2023-04-28T12:27:24.674Z,13.28
2023-04-28T12:28:41.372Z,13.36
2023-04-28T12:29:46.043Z,13.55
2023-04-28T12:30:54.037Z,13.42
2023-04-28T12:31:56.518Z,13.04
2023-04-28T12:32:59.642Z,12.85
2023-04-28T12:34:03.416Z,12.77
2023-04-28T12:35:07.152Z,13.05
2023-04-28T12:36:10.239Z,13.08
2023-04-28T12:37:13.734Z,13.24
2023-04-28T12:38:16.958Z,13.39
2023-04-28T12:39:19.452Z,13.53
2023-04-28T12:40:24.468Z,13.63
2023-04-28T12:41:26.809Z,13.75
2023-04-28T12:42:29.153Z,14.08
2023-04-28T12:43:31.646Z,14.24
2023-04-28T12:44:35.445Z,13.94
2023-04-28T12:45:39.016Z,13.94
2023-04-28T12:46:42.150Z,14.22
2023-04-28T12:47:45.829Z,14.02
2023-04-28T12:48:48.426Z,14.23
2023-04-28T12:49:52.658Z,14.47
2023-04-28T12:50:55.236Z,14.63
2023-04-28T12:51:57.578Z,14.63
2023-04-28T12:52:59.961Z,13.93
2023-04-28T12:54:04.246Z,14.09
2023-04-28T12:55:07.692Z,14.01
2023-04-28T12:56:10.304Z,14.31
2023-04-28T12:57:14.646Z,14.09
2023-04-28T12:58:19.059Z,13.73
2023-04-28T12:59:22.931Z,13.70
2023-04-28T13:00:25.896Z,14.02
2023-04-28T13:01:29.757Z,14.00
2023-04-28T13:02:33.510Z,14.03
2023-04-28T13:03:37.623Z,14.00
2023-04-28T13:04:42.496Z,13.80
2023-04-28T13:05:45.099Z,14.01
2023-04-28T13:06:48.335Z,14.05
2023-04-28T13:07:51.913Z,13.99
2023-04-28T13:08:55.618Z,14.14
2023-04-28T13:09:58.798Z,14.19
2023-04-28T13:11:04.911Z,14.43
2023-04-28T13:12:05.867Z,14.26
2023-04-28T13:13:09.120Z,14.26
2023-04-28T13:14:11.991Z,14.16
2023-04-28T13:15:14.289Z,14.46
2023-04-28T13:16:17.162Z,14.05
2023-04-28T13:17:19.637Z,14.49
2023-04-28T13:18:23.035Z,14.61
2023-04-28T13:19:26.903Z,14.66
2023-04-28T13:20:29.802Z,14.85
2023-04-28T13:21:32.050Z,14.94
2023-04-28T13:22:34.463Z,14.69
2023-04-28T13:23:36.885Z,14.25
2023-04-28T13:24:38.992Z,14.22
2023-04-28T13:25:41.417Z,14.31
2023-04-28T13:26:44.438Z,14.34
2023-04-28T13:27:47.138Z,14.53
2023-04-28T13:28:51.537Z,14.81
2023-04-28T13:29:56.086Z,15.13
2023-04-28T13:31:00.426Z,15.16
2023-04-28T13:32:02.578Z,14.54
2023-04-28T13:33:04.923Z,14.50
2023-04-28T13:34:08.458Z,14.19
2023-04-28T13:35:11.513Z,14.01
2023-04-28T13:36:13.998Z,14.07
2023-04-28T13:37:16.605Z,14.19
2023-04-28T13:38:21.222Z,14.35
2023-04-28T13:39:24.874Z,13.90
2023-04-28T13:40:28.386Z,14.14
2023-04-28T13:41:31.099Z,14.39
2023-04-28T13:42:33.538Z,14.95
2023-04-28T13:43:35.752Z,15.00
2023-04-28T13:44:37.812Z,15.23
2023-04-28T13:45:41.262Z,14.87
2023-04-28T13:46:51.937Z,14.51
2023-04-28T13:47:54.909Z,14.27
2023-04-28T13:48:57.678Z,14.83
2023-04-28T13:50:00.976Z,14.72
2023-04-28T13:51:04.359Z,14.97
2023-04-28T13:52:06.790Z,14.53
2023-04-28T13:53:09.523Z,14.64
2023-04-28T13:54:12.209Z,14.80
2023-04-28T13:55:14.986Z,15.34
2023-04-28T13:56:17.498Z,15.61
2023-04-28T13:57:20.341Z,15.83
2023-04-28T13:58:27.876Z,15.43
2023-04-28T13:59:30.388Z,15.88
2023-04-28T14:00:33.638Z,16.31
2023-04-28T14:01:36.293Z,16.57
2023-04-28T14:02:39.635Z,16.50
2023-04-28T14:03:43.638Z,16.54
2023-04-28T14:04:48.697Z,16.54
2023-04-28T14:05:52.961Z,16.71
2023-04-28T14:06:55.467Z,17.00
2023-04-28T14:07:57.799Z,16.77
2023-04-28T14:09:00.607Z,16.32
2023-04-28T14:10:04.521Z,16.14
2023-04-28T14:11:09.572Z,16.29